Time;durP1;ratioP1;P1;durP2;ratioP2;P2;SDS_P1;SDS_P2;PMS_P1;PMS_P2;Temp;Humidity;BMP_temperature;BMP_pressure;BME280_temperature;BME280_humidity;BME280_pressure;Samples;Min_cycle;Max_cycle;Signal;HPM_P1;HPM_P2
2023/08/06 10:40:10;;;;;;;0.30;0.30;;;18.00;99.90;;;;;;4935813;29;20232;-77
2023/08/06 10:42:37;;;;;;;0.20;0.20;;;17.80;99.90;;;;;;4937281;29;20204;-76
2023/08/06 10:45:14;;;;;;;0.20;0.20;;;17.40;99.90;;;;;;4937012;29;20238;-76
2023/08/06 10:47:41;;;;;;;0.20;0.20;;;16.80;99.90;;;;;;4936672;29;20231;-76
2023/08/06 10:50:11;;;;;;;0.20;0.20;;;16.40;99.90;;;;;;4936912;29;20208;-76
2023/08/06 10:52:38;;;;;;;0.20;0.20;;;16.00;99.90;;;;;;4936590;29;20211;-75
2023/08/06 10:55:06;;;;;;;0.20;0.20;;;15.90;99.90;;;;;;4937110;29;20205;-74
2023/08/06 10:57:34;;;;;;;0.10;0.10;;;15.60;99.90;;;;;;4936567;29;20243;-76
2023/08/06 11:00:01;;;;;;;1.25;0.22;;;15.70;99.90;;;;;;4936423;29;20207;-75
2023/08/06 11:02:29;;;;;;;0.20;0.20;;;15.90;99.90;;;;;;4936516;29;20268;-76
2023/08/06 11:04:56;;;;;;;0.20;0.20;;;15.90;99.90;;;;;;4937162;29;20661;-75
2023/08/06 11:07:23;;;;;;;0.20;0.20;;;16.40;99.90;;;;;;4936916;29;20227;-75
2023/08/06 11:09:53;;;;;;;0.25;0.25;;;16.70;99.90;;;;;;4938694;29;20208;-79
2023/08/06 11:12:20;;;;;;;0.10;0.10;;;16.80;99.90;;;;;;4938340;29;20207;-78
2023/08/06 11:14:52;;;;;;;0.10;0.10;;;16.90;99.90;;;;;;4940298;29;20259;-79
2023/08/06 11:17:18;;;;;;;0.20;0.20;;;16.90;99.90;;;;;;4937829;29;20233;-77
2023/08/06 11:19:45;;;;;;;0.13;0.13;;;16.70;99.90;;;;;;4937296;29;20219;-76
2023/08/06 11:22:12;;;;;;;0.15;0.15;;;16.70;99.90;;;;;;4940085;29;20251;-76
2023/08/06 11:24:39;;;;;;;0.20;0.20;;;16.80;99.90;;;;;;4939509;29;20213;-76
2023/08/06 11:27:12;;;;;;;0.20;0.20;;;16.80;99.90;;;;;;4939592;29;20775;-76
2023/08/06 11:29:39;;;;;;;0.10;0.10;;;16.60;99.90;;;;;;4939650;29;20561;-76
2023/08/06 11:32:08;;;;;;;0.10;0.10;;;16.40;99.90;;;;;;4940348;29;20200;-75
2023/08/06 11:34:35;;;;;;;0.20;0.20;;;16.30;99.90;;;;;;4939414;29;20576;-75
2023/08/06 11:37:04;;;;;;;0.25;0.25;;;16.30;99.90;;;;;;4940169;29;20220;-76
2023/08/06 11:39:31;;;;;;;0.10;0.10;;;16.40;99.90;;;;;;4939718;29;20215;-75
2023/08/06 11:42:00;;;;;;;0.20;0.20;;;16.50;99.90;;;;;;4939693;29;20205;-75
2023/08/06 11:44:27;;;;;;;0.10;0.10;;;16.60;99.90;;;;;;4939673;29;20201;-75
2023/08/06 11:46:55;;;;;;;0.20;0.20;;;16.60;99.90;;;;;;4939106;29;20590;-75
2023/08/06 11:49:38;;;;;;;0.30;0.20;;;16.40;99.90;;;;;;4939538;29;20215;-75
2023/08/06 11:52:11;;;;;;;0.20;0.20;;;16.30;99.90;;;;;;4939512;29;20668;-75
2023/08/06 11:54:38;;;;;;;0.20;0.20;;;16.20;99.90;;;;;;4940185;29;20193;-75
2023/08/06 11:57:06;;;;;;;0.20;0.20;;;16.10;99.90;;;;;;4940685;29;20228;-77
2023/08/06 11:59:33;;;;;;;0.20;0.20;;;16.00;99.90;;;;;;4941410;29;20189;-78
2023/08/06 12:02:02;;;;;;;0.20;0.20;;;16.00;99.90;;;;;;4939465;29;20208;-77
2023/08/06 12:04:30;;;;;;;0.20;0.20;;;15.90;99.90;;;;;;4939800;29;20210;-77
2023/08/06 12:07:05;;;;;;;0.20;0.20;;;15.80;99.90;;;;;;4942749;29;20231;-78
2023/08/06 12:09:33;;;;;;;0.10;0.10;;;15.60;99.90;;;;;;4942878;29;20625;-77
2023/08/06 12:12:00;;;;;;;0.13;0.13;;;15.50;99.90;;;;;;4939808;29;20200;-77
2023/08/06 12:14:26;;;;;;;0.13;0.13;;;15.40;99.90;;;;;;4939919;29;20205;-77
2023/08/06 12:16:53;;;;;;;0.20;0.20;;;15.30;99.90;;;;;;4939890;29;20232;-77
2023/08/06 12:19:20;;;;;;;0.20;0.20;;;15.20;99.90;;;;;;4940492;29;20208;-78
2023/08/06 12:21:48;;;;;;;0.20;0.20;;;15.10;99.90;;;;;;4940669;29;20727;-78
2023/08/06 12:24:14;;;;;;;0.20;0.20;;;15.10;99.90;;;;;;4940867;29;20208;-78
2023/08/06 12:26:41;;;;;;;0.17;0.17;;;15.10;99.90;;;;;;4940640;29;20640;-78
2023/08/06 12:29:08;;;;;;;0.20;0.20;;;15.40;99.90;;;;;;4942489;29;20185;-77
2023/08/06 12:31:35;;;;;;;0.20;0.20;;;15.70;99.90;;;;;;4949688;29;20201;-78
2023/08/06 12:34:01;;;;;;;0.20;0.20;;;16.00;99.90;;;;;;4957916;29;20208;-78
2023/08/06 12:36:28;;;;;;;0.40;0.40;;;16.30;99.90;;;;;;4939136;29;20209;-76
2023/08/06 12:38:56;;;;;;;0.30;0.30;;;16.60;99.90;;;;;;4938677;29;20585;-76
2023/08/06 12:41:23;;;;;;;0.20;0.20;;;16.70;99.90;;;;;;4938344;29;20232;-75
2023/08/06 12:43:49;;;;;;;0.20;0.20;;;16.70;99.90;;;;;;4938433;29;20205;-75
2023/08/06 12:46:16;;;;;;;0.20;0.20;;;16.80;99.90;;;;;;4939404;29;20212;-75
2023/08/06 12:48:43;;;;;;;0.10;0.10;;;16.60;99.90;;;;;;4940000;29;20221;-75
2023/08/06 12:51:10;;;;;;;1.40;0.30;;;16.50;99.90;;;;;;4939829;29;20201;-75
2023/08/06 12:53:37;;;;;;;0.10;0.10;;;16.40;99.90;;;;;;4938454;29;20643;-78
2023/08/06 12:56:05;;;;;;;0.15;0.15;;;16.30;99.90;;;;;;4939078;29;20211;-77
2023/08/06 12:58:32;;;;;;;0.20;0.20;;;16.10;99.90;;;;;;4939135;29;20324;-76
2023/08/06 13:00:59;;;;;;;0.20;0.20;;;16.10;99.90;;;;;;4940016;29;20209;-76
2023/08/06 13:03:26;;;;;;;0.10;0.10;;;16.10;99.90;;;;;;4940709;29;20224;-76
2023/08/06 13:05:53;;;;;;;0.10;0.10;;;16.20;99.90;;;;;;4940142;29;20185;-77
2023/08/06 13:08:20;;;;;;;0.20;0.20;;;16.40;99.90;;;;;;4940610;29;20264;-77
2023/08/06 13:10:47;;;;;;;0.68;0.20;;;16.40;99.90;;;;;;4939820;29;20734;-77
2023/08/06 13:13:16;;;;;;;0.43;0.20;;;16.40;99.90;;;;;;4940136;29;20261;-77
2023/08/06 13:15:43;;;;;;;0.13;0.13;;;16.30;99.90;;;;;;4940801;29;20629;-77
2023/08/06 13:18:10;;;;;;;0.20;0.20;;;16.30;99.90;;;;;;4941048;29;20225;-78
2023/08/06 13:20:40;;;;;;;0.20;0.20;;;16.30;99.90;;;;;;4941258;29;20201;-78
2023/08/06 13:23:08;;;;;;;0.10;0.10;;;16.40;99.90;;;;;;4940857;29;20241;-77
2023/08/06 13:25:37;;;;;;;0.20;0.20;;;16.40;99.90;;;;;;4941122;29;20205;-77
2023/08/06 13:28:04;;;;;;;0.20;0.20;;;16.20;99.90;;;;;;4940934;29;20228;-77
2023/08/06 13:30:32;;;;;;;0.75;0.20;;;15.90;99.90;;;;;;4941646;29;20204;-77
2023/08/06 13:32:59;;;;;;;0.20;0.20;;;15.70;99.90;;;;;;4942793;29;20201;-77
2023/08/06 13:35:26;;;;;;;0.20;0.20;;;15.50;99.90;;;;;;4942082;29;20209;-77
2023/08/06 13:37:54;;;;;;;0.20;0.20;;;15.40;99.90;;;;;;4947420;29;20252;-78
2023/08/06 13:40:21;;;;;;;0.20;0.20;;;15.40;99.90;;;;;;4946752;29;20248;-76
2023/08/06 13:42:48;;;;;;;0.30;0.30;;;15.50;99.90;;;;;;4944235;29;20580;-75
2023/08/06 13:45:15;;;;;;;0.10;0.10;;;15.70;99.90;;;;;;4943653;29;20215;-76
2023/08/06 13:47:44;;;;;;;0.22;0.22;;;16.10;99.90;;;;;;4943731;29;20228;-76
2023/08/06 13:50:11;;;;;;;0.20;0.20;;;16.40;99.90;;;;;;4944079;29;20204;-76
2023/08/06 13:52:38;;;;;;;0.20;0.20;;;16.50;99.90;;;;;;4943548;29;20668;-76
2023/08/06 13:55:05;;;;;;;0.40;0.30;;;16.70;99.90;;;;;;4943316;29;20673;-76
2023/08/06 13:57:32;;;;;;;0.20;0.20;;;16.70;99.90;;;;;;4941619;29;20229;-76
2023/08/06 13:59:59;;;;;;;0.30;0.30;;;16.80;99.90;;;;;;4940802;29;20211;-76
2023/08/06 14:02:29;;;;;;;0.25;0.25;;;16.90;99.90;;;;;;4938271;29;20227;-76
2023/08/06 14:04:59;;;;;;;0.20;0.20;;;17.10;99.90;;;;;;4939201;29;20260;-76
2023/08/06 14:07:26;;;;;;;0.20;0.20;;;17.10;99.90;;;;;;4938065;29;20224;-76
2023/08/06 14:10:16;;;;;;;0.20;0.20;;;17.10;99.90;;;;;;4937509;29;20219;-76
2023/08/06 14:12:43;;;;;;;0.22;0.22;;;17.10;99.90;;;;;;4936941;29;20190;-76
2023/08/06 14:15:11;;;;;;;0.20;0.20;;;17.10;99.90;;;;;;4936522;29;20230;-76
2023/08/06 14:17:38;;;;;;;0.20;0.20;;;16.90;99.90;;;;;;4936749;29;20592;-75
2023/08/06 14:20:11;;;;;;;0.30;0.30;;;16.80;99.90;;;;;;4937506;29;20296;-76
2023/08/06 14:22:38;;;;;;;0.20;0.20;;;16.70;99.90;;;;;;4937335;29;20268;-76
2023/08/06 14:25:08;;;;;;;0.20;0.20;;;16.80;99.90;;;;;;4937296;29;20214;-76
2023/08/06 14:27:34;;;;;;;2.53;0.20;;;16.80;99.90;;;;;;4937283;29;20398;-76
2023/08/06 14:30:06;;;;;;;0.30;0.30;;;16.80;99.90;;;;;;4937186;29;20291;-76
2023/08/06 14:32:37;;;;;;;0.30;0.30;;;17.00;99.90;;;;;;4938991;29;20552;-76
2023/08/06 14:35:08;;;;;;;2.05;0.30;;;17.10;99.90;;;;;;4942152;29;20193;-76
2023/08/06 14:37:35;;;;;;;0.20;0.20;;;17.20;99.90;;;;;;4938298;29;20235;-76
2023/08/06 14:40:04;;;;;;;0.47;0.40;;;17.10;99.90;;;;;;4937181;29;20216;-76
2023/08/06 14:42:40;;;;;;;0.43;0.30;;;17.10;99.90;;;;;;4936320;29;20700;-76
2023/08/06 14:45:38;;;;;;;0.30;0.30;;;17.20;99.90;;;;;;4936593;29;20205;-76
2023/08/06 14:48:07;;;;;;;0.35;0.35;;;;;;;;;;4936421;29;20224;-76
2023/08/06 14:50:44;;;;;;;3.20;0.50;;;;;;;;;;4936585;29;20209;-76
2023/08/06 14:53:14;;;;;;;0.20;0.20;;;;;;;;;;4936645;29;20192;-76
2023/08/06 14:56:01;;;;;;;0.32;0.32;;;;;;;;;;4935956;29;20189;-76
2023/08/06 14:58:28;;;;;;;0.52;0.30;;;;;;;;;;4936487;29;20234;-77
2023/08/06 15:00:57;;;;;;;0.20;0.20;;;;;;;;;;4936479;29;20204;-77
2023/08/06 15:03:24;;;;;;;0.35;0.35;;;;;;;;;;4937147;29;20236;-76
2023/08/06 15:05:53;;;;;;;0.20;0.20;;;;;;;;;;4936364;29;20204;-76
2023/08/06 15:08:20;;;;;;;0.52;0.30;;;;;;;;;;4936211;29;20252;-76
2023/08/06 15:10:53;;;;;;;0.40;0.40;;;;;;;;;;4936673;29;20204;-76
2023/08/06 15:13:46;;;;;;;0.40;0.40;;;17.10;99.90;;;;;;4935898;29;20652;-76
2023/08/06 15:16:21;;;;;;;0.43;0.43;;;17.10;99.90;;;;;;4935798;29;20219;-76
2023/08/06 15:18:52;;;;;;;0.57;0.50;;;16.80;99.90;;;;;;4936046;29;20236;-76
2023/08/06 15:21:25;;;;;;;0.55;0.55;;;;;;;;;;4936327;29;20216;-76
2023/08/06 15:23:56;;;;;;;0.40;0.40;;;16.00;99.90;;;;;;4935922;29;20193;-76
2023/08/06 15:26:25;;;;;;;0.50;0.50;;;15.60;99.90;;;;;;4936210;29;20279;-76
2023/08/06 15:28:58;;;;;;;0.40;0.40;;;;;;;;;;4936221;29;20228;-76
2023/08/06 15:31:26;;;;;;;0.50;0.50;;;;;;;;;;4936192;29;20196;-76
2023/08/06 15:33:53;;;;;;;0.50;0.50;;;;;;;;;;4936176;29;20677;-76
2023/08/06 15:36:21;;;;;;;0.55;0.55;;;;;;;;;;4936105;29;20188;-76
2023/08/06 15:38:48;;;;;;;0.57;0.57;;;;;;;;;;4936286;29;20232;-75
2023/08/06 15:41:16;;;;;;;0.50;0.50;;;;;;;;;;4935865;29;20224;-76
2023/08/06 15:43:43;;;;;;;0.63;0.63;;;;;;;;;;4935918;29;20208;-76
2023/08/06 15:46:10;;;;;;;0.40;0.40;;;;;;;;;;4936160;29;20221;-75
2023/08/06 15:48:37;;;;;;;0.47;0.47;;;;;;;;;;4936364;29;20228;-75
2023/08/06 15:51:04;;;;;;;0.60;0.60;;;;;;;;;;4936089;29;20201;-75
2023/08/06 15:53:32;;;;;;;0.70;0.70;;;;;;;;;;4935909;29;20204;-76
2023/08/06 15:55:59;;;;;;;0.50;0.50;;;;;;;;;;4936136;29;20208;-76
2023/08/06 15:58:26;;;;;;;0.50;0.50;;;;;;;;;;4936172;29;20220;-75
2023/08/06 16:00:53;;;;;;;0.95;0.60;;;;;;;;;;4936062;29;20205;-76
2023/08/06 16:03:20;;;;;;;0.82;0.82;;;;;;;;;;4936277;29;20201;-75
2023/08/06 16:05:47;;;;;;;0.60;0.60;;;;;;;;;;4937707;29;20229;-76
2023/08/06 16:08:15;;;;;;;1.48;0.60;;;;;;;;;;4939725;29;20335;-76
2023/08/06 16:10:44;;;;;;;0.80;0.80;;;;;;;;;;4939756;29;20193;-75
2023/08/06 16:13:12;;;;;;;0.70;0.70;;;;;;;;;;4940158;29;20200;-74
2023/08/06 16:15:39;;;;;;;0.50;0.50;;;;;;;;;;4941513;29;20224;-75
2023/08/06 16:18:06;;;;;;;0.57;0.57;;;;;;;;;;4945569;29;20248;-74
2023/08/06 16:20:33;;;;;;;0.82;0.70;;;;;;;;;;4959450;29;20211;-74
2023/08/06 16:23:00;;;;;;;0.80;0.80;;;;;;;;;;4959479;29;20216;-74
2023/08/06 16:25:27;;;;;;;0.40;0.40;;;;;;;;;;4942694;29;20232;-75
2023/08/06 16:27:55;;;;;;;0.60;0.60;;;;;;;;;;4939268;29;20235;-74
2023/08/06 16:30:23;;;;;;;0.70;0.70;;;;;;;;;;4939326;29;20223;-74
2023/08/06 16:32:51;;;;;;;0.80;0.80;;;;;;;;;;4939109;29;20231;-74
2023/08/06 16:35:18;;;;;;;0.77;0.77;;;;;;;;;;4939173;29;20200;-74
2023/08/06 16:37:47;;;;;;;0.70;0.70;;;;;;;;;;4939070;29;20225;-72
2023/08/06 16:40:15;;;;;;;0.70;0.70;;;;;;;;;;4938846;29;20688;-75
2023/08/06 16:42:43;;;;;;;0.75;0.75;;;;;;;;;;4939410;29;20257;-74
2023/08/06 16:45:11;;;;;;;0.75;0.70;;;;;;;;;;4938607;29;20235;-74
2023/08/06 16:47:38;;;;;;;0.55;0.55;;;;;;;;;;4938593;29;20305;-75
2023/08/06 16:50:06;;;;;;;0.50;0.50;;;;;;;;;;4938625;29;20213;-74
2023/08/06 16:52:33;;;;;;;0.70;0.70;;;;;;;;;;4939639;29;20204;-75
2023/08/06 16:55:00;;;;;;;0.70;0.70;;;;;;;;;;4939006;29;20207;-75
2023/08/06 16:57:27;;;;;;;0.80;0.80;;;;;;;;;;4938555;29;20232;-76
2023/08/06 16:59:54;;;;;;;0.52;0.52;;;;;;;;;;4938589;29;20201;-75
2023/08/06 17:02:23;;;;;;;0.77;0.77;;;;;;;;;;4939045;29;20208;-76
2023/08/06 17:04:50;;;;;;;0.70;0.70;;;;;;;;;;4938338;29;20229;-76
2023/08/06 17:07:17;;;;;;;0.60;0.60;;;;;;;;;;4938666;29;20712;-75
2023/08/06 17:09:44;;;;;;;0.68;0.68;;;;;;;;;;4938478;29;20205;-75
2023/08/06 17:12:11;;;;;;;0.50;0.50;;;;;;;;;;4938161;29;20208;-76
2023/08/06 17:14:38;;;;;;;0.63;0.63;;;;;;;;;;4938405;29;20576;-76
2023/08/06 17:17:05;;;;;;;0.50;0.50;;;;;;;;;;4938278;29;20232;-76
2023/08/06 17:19:33;;;;;;;1.00;0.60;;;;;;;;;;4939206;29;20220;-76
2023/08/06 17:22:01;;;;;;;0.47;0.47;;;;;;;;;;4940501;29;20215;-77
2023/08/06 17:24:28;;;;;;;0.90;0.60;;;;;;;;;;4939610;29;20208;-78
2023/08/06 17:26:58;;;;;;;0.75;0.75;;;;;;;;;;4940386;29;20581;-78
2023/08/06 17:29:25;;;;;;;1.08;0.98;;;;;;;;;;4943934;29;20196;-77
2023/08/06 17:31:52;;;;;;;0.68;0.65;;;;;;;;;;4940799;29;20213;-78
2023/08/06 17:34:20;;;;;;;0.90;0.90;;;;;;;;;;4939272;29;20348;-77
2023/08/06 17:36:48;;;;;;;0.90;0.60;;;;;;;;;;4938588;29;20212;-77
2023/08/06 17:39:15;;;;;;;1.00;1.00;;;;;;;;;;4938528;29;20212;-75
2023/08/06 17:41:42;;;;;;;0.90;0.90;;;;;;;;;;4938623;29;20193;-76
2023/08/06 17:44:09;;;;;;;0.95;0.95;;;;;;;;;;4938265;29;20264;-76
2023/08/06 17:46:36;;;;;;;0.80;0.80;;;;;;;;;;4937738;29;20224;-76
2023/08/06 17:49:03;;;;;;;0.90;0.90;;;;;;;;;;4938085;29;20205;-76
2023/08/06 17:51:31;;;;;;;0.85;0.85;;;;;;;;;;4937428;29;20215;-76
2023/08/06 17:53:59;;;;;;;0.68;0.68;;;;;;;;;;4937482;29;20208;-76
2023/08/06 17:56:26;;;;;;;0.73;0.73;;;;;;;;;;4937417;29;20209;-76
2023/08/06 17:58:53;;;;;;;0.70;0.70;;;;;;;;;;4937273;29;20256;-76
2023/08/06 18:01:20;;;;;;;0.70;0.70;;;;;;;;;;4937302;29;20208;-76
2023/08/06 18:03:49;;;;;;;0.70;0.70;;;;;;;;;;4936982;29;20741;-76
2023/08/06 18:06:17;;;;;;;0.70;0.70;;;;;;;;;;4937120;29;20248;-76
2023/08/06 18:08:44;;;;;;;0.90;0.90;;;;;;;;;;4937159;29;20244;-76
2023/08/06 18:11:12;;;;;;;0.70;0.70;;;;;;;;;;4937089;29;20212;-75
2023/08/06 18:13:39;;;;;;;0.70;0.70;;;;;;;;;;4937129;29;20216;-75
2023/08/06 18:16:06;;;;;;;0.70;0.70;;;;;;;;;;4937099;29;20228;-76
2023/08/06 18:18:33;;;;;;;0.60;0.60;;;;;;;;;;4936578;29;20596;-76
2023/08/06 18:21:00;;;;;;;0.80;0.80;;;;;;;;;;4936971;29;20212;-76
2023/08/06 18:23:27;;;;;;;0.70;0.70;;;;;;;;;;4936848;29;20279;-76
2023/08/06 18:25:56;;;;;;;1.05;0.80;;;;;;;;;;4936461;29;20688;-76
2023/08/06 18:28:24;;;;;;;0.85;0.85;;;;;;;;;;4936459;29;20224;-76
2023/08/06 18:30:52;;;;;;;1.00;1.00;;;;;;;;;;4937646;29;20568;-75
2023/08/06 18:33:19;;;;;;;0.80;0.80;;;;;;;;;;4937889;29;20216;-76
2023/08/06 18:35:46;;;;;;;0.95;0.90;;;;;;;;;;4937788;29;20660;-76
2023/08/06 18:38:13;;;;;;;0.90;0.90;;;;;;;;;;4937910;29;20239;-76
2023/08/06 18:40:40;;;;;;;0.65;0.65;;;;;;;;;;4938875;29;20212;-77
2023/08/06 18:43:08;;;;;;;0.80;0.80;;;;;;;;;;4938085;29;20549;-76
2023/08/06 18:45:38;;;;;;;0.60;0.60;;;;;;;;;;4937982;29;20248;-77
2023/08/06 18:48:06;;;;;;;0.70;0.70;;;;;;;;;;4937407;29;20229;-77
2023/08/06 18:50:35;;;;;;;0.77;0.77;;;;;;;;;;4937559;29;20201;-77
2023/08/06 18:53:02;;;;;;;0.60;0.60;;;;;;;;;;4937296;29;20273;-76
2023/08/06 18:55:30;;;;;;;2.05;0.55;;;;;;;;;;4937266;29;20229;-76
2023/08/06 18:57:57;;;;;;;0.70;0.70;;;;;;;;;;4937390;29;20247;-76
2023/08/06 19:00:24;;;;;;;0.70;0.70;;;;;;;;;;4937344;29;20201;-76
2023/08/06 19:02:53;;;;;;;0.80;0.80;;;;;;;;;;4937402;29;20204;-76
2023/08/06 19:05:20;;;;;;;0.77;0.77;;;;;;;;;;4937627;29;20204;-75
2023/08/06 19:07:47;;;;;;;0.80;0.80;;;;;;;;;;4936800;29;20220;-76
2023/08/06 19:10:14;;;;;;;1.00;0.80;;;;;;;;;;4936563;29;20209;-75
2023/08/06 19:12:41;;;;;;;0.85;0.85;;;;;;;;;;4935989;29;20578;-75
2023/08/06 19:15:09;;;;;;;0.82;0.82;;;;;;;;;;4936165;29;20204;-75
2023/08/06 19:17:36;;;;;;;0.80;0.80;;;;;;;;;;4936315;29;20224;-75
2023/08/06 19:20:04;;;;;;;0.90;0.90;;;;;;;;;;4936314;29;20208;-75
2023/08/06 19:22:31;;;;;;;0.95;0.90;;;;;;;;;;4936196;29;20219;-76
2023/08/06 19:24:58;;;;;;;1.08;1.08;;;;;;;;;;4936260;29;20201;-75
2023/08/06 19:27:25;;;;;;;0.82;0.82;;;;;;;;;;4936116;29;20234;-75
2023/08/06 19:29:53;;;;;;;1.67;0.90;;;;;;;;;;4936381;29;20205;-75
2023/08/06 19:32:20;;;;;;;0.80;0.80;;;;;;;;;;4936154;29;20283;-75
2023/08/06 19:34:48;;;;;;;0.85;0.85;;;;;;;;;;4936327;29;20284;-76
2023/08/06 19:37:17;;;;;;;0.70;0.70;;;;;;;;;;4935806;29;20217;-75
2023/08/06 19:39:44;;;;;;;0.80;0.80;;;;;;;;;;4936069;29;20223;-75
2023/08/06 19:42:11;;;;;;;1.00;1.00;;;;;;;;;;4939504;29;20204;-76
2023/08/06 19:44:38;;;;;;;0.90;0.90;;;;;;;;;;4940460;29;20205;-75
2023/08/06 19:47:05;;;;;;;1.00;1.00;;;;;;;;;;4940420;29;20236;-77
2023/08/06 19:49:32;;;;;;;0.90;0.90;;;;;;;;;;4940761;29;20208;-76
2023/08/06 19:51:59;;;;;;;1.08;1.08;;;;;;;;;;4940137;29;20201;-75
2023/08/06 19:54:28;;;;;;;0.93;0.93;;;;;;;;;;4940132;29;20281;-75
2023/08/06 19:56:55;;;;;;;0.82;0.82;;;;;;;;;;4942812;29;20604;-76
2023/08/06 19:59:22;;;;;;;0.80;0.80;;;;;;;;;;4961182;29;20208;-75
2023/08/06 20:01:50;;;;;;;0.70;0.70;;;;;;;;;;4960799;29;20224;-73
2023/08/06 20:04:17;;;;;;;0.85;0.85;;;;;;;;;;4939548;29;20209;-73
2023/08/06 20:06:45;;;;;;;0.80;0.80;;;;;;;;;;4939354;29;20224;-72
2023/08/06 20:09:13;;;;;;;1.05;0.80;;;;;;;;;;4940758;29;20260;-73
2023/08/06 20:11:41;;;;;;;0.77;0.77;;;;;;;;;;4941647;29;20240;-73
2023/08/06 20:14:08;;;;;;;0.70;0.70;;;;;;;;;;4942146;29;20570;-73
2023/08/06 20:16:36;;;;;;;0.80;0.80;;;;;;;;;;4940033;29;20201;-76
2023/08/06 20:19:03;;;;;;;0.80;0.80;;;;;;;;;;4939369;29;20292;-73
2023/08/06 20:21:30;;;;;;;0.70;0.70;;;;;;;;;;4939261;29;20240;-74
2023/08/06 20:23:57;;;;;;;0.98;0.98;;;;;;;;;;4939279;29;20291;-74
2023/08/06 20:26:25;;;;;;;0.90;0.70;;;;;;;;;;4939025;29;20224;-74
2023/08/06 20:28:53;;;;;;;0.70;0.70;;;;;;;;;;4938767;29;20231;-73
2023/08/06 20:31:20;;;;;;;0.80;0.80;;;;;;;;;;4939011;29;20215;-73
2023/08/06 20:33:48;;;;;;;0.75;0.75;;;;;;;;;;4938894;29;20229;-73
2023/08/06 20:36:15;;;;;;;0.93;0.80;;;;;;;;;;4938737;29;20197;-73
2023/08/06 20:38:42;;;;;;;1.00;1.00;;;;;;;;;;4938672;29;20229;-73
2023/08/06 20:41:09;;;;;;;0.85;0.85;;;;;;;;;;4938412;29;20216;-72
2023/08/06 20:43:37;;;;;;;0.80;0.80;;;;;;;;;;4938743;29;20204;-72
2023/08/06 20:46:05;;;;;;;0.73;0.70;;;;;;;;;;4938457;29;20231;-72
2023/08/06 20:48:32;;;;;;;0.90;0.90;;;;;;;;;;4938465;29;20229;-72
2023/08/06 20:50:59;;;;;;;1.40;1.10;;;;;;;;;;4938455;29;20208;-72
2023/08/06 20:53:26;;;;;;;0.90;0.90;;;;;;;;;;4937201;29;20573;-72
2023/08/06 20:56:00;;;;;;;1.00;1.00;;;;;;;;;;4938161;29;20212;-72
2023/08/06 20:58:28;;;;;;;1.00;1.00;;;;;;;;;;4938587;29;20231;-73
2023/08/06 21:00:55;;;;;;;0.98;0.98;;;;;;;;;;4938555;29;20233;-71
2023/08/06 21:03:24;;;;;;;0.98;0.98;;;;;;;;;;4938368;29;20208;-72
2023/08/06 21:06:04;;;;;;;1.08;0.95;;;;;;;;;;4938189;29;20215;-72
2023/08/06 21:08:31;;;;;;;1.13;1.13;;;;;;;;;;4937907;29;20231;-72
2023/08/06 21:10:58;;;;;;;0.90;0.90;;;;;;;;;;4938148;29;20299;-72
2023/08/06 21:13:26;;;;;;;0.98;0.98;;;;;;;;;;4937891;29;20681;-73
2023/08/06 21:15:57;;;;;;;0.90;0.90;;;;;;;;;;4938071;29;20208;-73
2023/08/06 21:18:26;;;;;;;1.20;0.98;;;;;;;;;;4938110;29;20224;-73
2023/08/06 21:20:53;;;;;;;1.02;1.02;;;;;;;;;;4938211;29;20208;-73
2023/08/06 21:23:23;;;;;;;1.00;1.00;;;;;;;;;;4938721;29;20213;-73
2023/08/06 21:25:51;;;;;;;0.95;0.95;;;;;;;;;;4937934;29;20248;-73
2023/08/06 21:28:18;;;;;;;0.60;0.60;;;;;;;;;;4937587;29;20704;-73
2023/08/06 21:30:45;;;;;;;1.17;1.17;;;;;;;;;;4938082;29;20212;-73
2023/08/06 21:33:12;;;;;;;0.90;0.77;;;;;;;;;;4938313;29;20216;-73
2023/08/06 21:35:40;;;;;;;0.90;0.90;;;;;;;;;;4937918;29;20205;-73
2023/08/06 21:38:07;;;;;;;0.80;0.80;;;;;;;;;;4938101;29;20231;-73
2023/08/06 21:40:35;;;;;;;1.00;1.00;;;;;;;;;;4937277;29;20681;-73
2023/08/06 21:43:02;;;;;;;0.70;0.70;;;;;;;;;;4937719;29;20205;-73
2023/08/06 21:45:30;;;;;;;0.85;0.85;;;;;;;;;;4937620;29;20204;-73
2023/08/06 21:47:57;;;;;;;0.82;0.82;;;;;;;;;;4937458;29;20229;-73
2023/08/06 21:50:24;;;;;;;0.90;0.90;;;;;;;;;;4937576;29;20209;-73
2023/08/06 21:52:53;;;;;;;0.88;0.88;;;;;;;;;;4937340;29;20680;-73
2023/08/06 21:55:20;;;;;;;0.60;0.60;;;;;;;;;;4937132;29;20209;-72
2023/08/06 21:57:47;;;;;;;0.75;0.75;;;;;;;;;;4937593;29;20730;-72
2023/08/06 22:00:15;;;;;;;0.60;0.60;;;;;;;;;;4937165;29;20215;-72
2023/08/06 22:02:43;;;;;;;0.75;0.75;;;;;;;;;;4937521;29;20201;-72
2023/08/06 22:05:10;;;;;;;0.70;0.70;;;;;;;;;;4937039;29;20209;-72
2023/08/06 22:07:37;;;;;;;0.90;0.90;;;;;;;;;;4936928;29;20708;-72
2023/08/06 22:10:06;;;;;;;0.75;0.75;;;;;;;;;;4936944;29;20549;-74
2023/08/06 22:12:33;;;;;;;0.60;0.60;;;;;;;;;;4937191;29;20211;-73
2023/08/06 22:15:00;;;;;;;1.40;1.25;;;;;;;;;;4937017;29;20216;-73
2023/08/06 22:17:27;;;;;;;0.80;0.80;;;;;;;;;;4936991;29;20217;-73
2023/08/06 22:19:54;;;;;;;0.73;0.73;;;;;;;;;;4936973;29;20287;-73
